sensor_id;sensor_type;location;lat;lon;timestamp;temperature;humidity
52899;DHT22;38763;53.096;6.062;2024-01-06T00:01:25;2.30;99.90
52899;DHT22;38763;53.096;6.062;2024-01-06T00:03:51;2.40;99.90
52899;DHT22;38763;53.096;6.062;2024-01-06T00:06:16;2.10;99.90
52899;DHT22;38763;53.096;6.062;2024-01-06T00:08:42;2.30;99.90
52899;DHT22;38763;53.096;6.062;2024-01-06T00:11:09;2.30;99.90
52899;DHT22;38763;53.096;6.062;2024-01-06T00:13:35;2.30;99.90
52899;DHT22;38763;53.096;6.062;2024-01-06T00:16:01;2.30;99.90
52899;DHT22;38763;53.096;6.062;2024-01-06T00:18:27;2.30;99.90
52899;DHT22;38763;53.096;6.062;2024-01-06T00:20:52;2.10;99.90
52899;DHT22;38763;53.096;6.062;2024-01-06T00:23:18;2.20;99.90
52899;DHT22;38763;53.096;6.062;2024-01-06T00:25:44;2.40;99.90
52899;DHT22;38763;53.096;6.062;2024-01-06T00:28:09;2.30;99.90
52899;DHT22;38763;53.096;6.062;2024-01-06T00:30:35;2.30;99.90
52899;DHT22;38763;53.096;6.062;2024-01-06T00:33:01;2.30;99.90
52899;DHT22;38763;53.096;6.062;2024-01-06T00:35:26;2.30;99.90
52899;DHT22;38763;53.096;6.062;2024-01-06T00:37:52;2.30;99.90
52899;DHT22;38763;53.096;6.062;2024-01-06T00:40:17;2.40;99.90
52899;DHT22;38763;53.096;6.062;2024-01-06T00:42:45;2.20;99.90
52899;DHT22;38763;53.096;6.062;2024-01-06T00:45:10;2.30;99.90
52899;DHT22;38763;53.096;6.062;2024-01-06T00:47:36;2.40;99.90
52899;DHT22;38763;53.096;6.062;2024-01-06T00:50:02;2.10;99.90
52899;DHT22;38763;53.096;6.062;2024-01-06T00:52:27;2.10;99.90
52899;DHT22;38763;53.096;6.062;2024-01-06T00:54:53;2.30;99.90
52899;DHT22;38763;53.096;6.062;2024-01-06T00:57:18;2.00;99.90
52899;DHT22;38763;53.096;6.062;2024-01-06T00:59:49;2.00;99.90
52899;DHT22;38763;53.096;6.062;2024-01-06T01:02:15;2.10;99.90
52899;DHT22;38763;53.096;6.062;2024-01-06T01:04:40;2.00;99.90
52899;DHT22;38763;53.096;6.062;2024-01-06T01:07:06;2.00;99.90
52899;DHT22;38763;53.096;6.062;2024-01-06T01:09:32;2.00;99.90
52899;DHT22;38763;53.096;6.062;2024-01-06T01:11:57;1.90;99.90
52899;DHT22;38763;53.096;6.062;2024-01-06T01:14:23;2.10;99.90
52899;DHT22;38763;53.096;6.062;2024-01-06T01:16:49;1.90;99.90
52899;DHT22;38763;53.096;6.062;2024-01-06T01:19:14;2.10;99.90
52899;DHT22;38763;53.096;6.062;2024-01-06T01:21:40;1.90;99.90
52899;DHT22;38763;53.096;6.062;2024-01-06T01:24:05;2.20;99.90
52899;DHT22;38763;53.096;6.062;2024-01-06T01:26:31;2.10;99.90
52899;DHT22;38763;53.096;6.062;2024-01-06T01:28:57;1.90;99.90
52899;DHT22;38763;53.096;6.062;2024-01-06T01:31:25;1.90;99.90
52899;DHT22;38763;53.096;6.062;2024-01-06T01:33:51;2.10;99.90
52899;DHT22;38763;53.096;6.062;2024-01-06T01:36:16;2.10;99.90
52899;DHT22;38763;53.096;6.062;2024-01-06T01:38:43;1.90;99.90
52899;DHT22;38763;53.096;6.062;2024-01-06T01:41:09;1.80;99.90
52899;DHT22;38763;53.096;6.062;2024-01-06T01:43:34;2.00;99.90
52899;DHT22;38763;53.096;6.062;2024-01-06T01:46:00;2.00;99.90
52899;DHT22;38763;53.096;6.062;2024-01-06T01:48:27;1.90;99.90
52899;DHT22;38763;53.096;6.062;2024-01-06T01:50:53;1.80;99.90
52899;DHT22;38763;53.096;6.062;2024-01-06T01:53:19;1.70;99.90
52899;DHT22;38763;53.096;6.062;2024-01-06T01:55:47;1.80;99.90
52899;DHT22;38763;53.096;6.062;2024-01-06T01:58:14;1.90;99.90
52899;DHT22;38763;53.096;6.062;2024-01-06T02:00:41;1.70;99.90
52899;DHT22;38763;53.096;6.062;2024-01-06T02:03:07;1.70;99.90
52899;DHT22;38763;53.096;6.062;2024-01-06T02:05:34;1.80;99.90
52899;DHT22;38763;53.096;6.062;2024-01-06T02:08:00;1.90;99.90
52899;DHT22;38763;53.096;6.062;2024-01-06T02:10:25;1.90;99.90
52899;DHT22;38763;53.096;6.062;2024-01-06T02:12:51;1.90;99.90
52899;DHT22;38763;53.096;6.062;2024-01-06T02:15:18;1.80;99.90
52899;DHT22;38763;53.096;6.062;2024-01-06T02:17:44;1.90;99.90
52899;DHT22;38763;53.096;6.062;2024-01-06T02:20:11;1.80;99.90
52899;DHT22;38763;53.096;6.062;2024-01-06T02:22:37;1.90;99.90
52899;DHT22;38763;53.096;6.062;2024-01-06T02:25:05;1.80;99.90
52899;DHT22;38763;53.096;6.062;2024-01-06T02:27:38;1.70;99.90
52899;DHT22;38763;53.096;6.062;2024-01-06T02:30:05;1.70;99.90
52899;DHT22;38763;53.096;6.062;2024-01-06T02:32:31;1.70;99.90
52899;DHT22;38763;53.096;6.062;2024-01-06T02:34:56;1.70;99.90
52899;DHT22;38763;53.096;6.062;2024-01-06T02:37:22;1.60;99.90
52899;DHT22;38763;53.096;6.062;2024-01-06T02:39:47;1.80;99.90
52899;DHT22;38763;53.096;6.062;2024-01-06T02:42:13;1.70;99.90
52899;DHT22;38763;53.096;6.062;2024-01-06T02:44:38;1.70;99.90
52899;DHT22;38763;53.096;6.062;2024-01-06T02:47:04;1.80;99.90
52899;DHT22;38763;53.096;6.062;2024-01-06T02:49:30;1.70;99.90
52899;DHT22;38763;53.096;6.062;2024-01-06T02:51:56;1.80;99.90
52899;DHT22;38763;53.096;6.062;2024-01-06T02:54:21;1.70;99.90
52899;DHT22;38763;53.096;6.062;2024-01-06T02:56:47;1.90;99.90
52899;DHT22;38763;53.096;6.062;2024-01-06T02:59:13;1.70;99.90
52899;DHT22;38763;53.096;6.062;2024-01-06T03:01:38;1.80;99.90
52899;DHT22;38763;53.096;6.062;2024-01-06T03:04:04;1.90;99.90
52899;DHT22;38763;53.096;6.062;2024-01-06T03:06:29;1.90;99.90
52899;DHT22;38763;53.096;6.062;2024-01-06T03:08:55;1.70;99.90
52899;DHT22;38763;53.096;6.062;2024-01-06T03:11:21;1.80;99.90
52899;DHT22;38763;53.096;6.062;2024-01-06T03:13:46;1.90;99.90
52899;DHT22;38763;53.096;6.062;2024-01-06T03:16:12;1.70;99.90
52899;DHT22;38763;53.096;6.062;2024-01-06T03:18:38;1.70;99.90
52899;DHT22;38763;53.096;6.062;2024-01-06T03:21:04;1.70;99.90
52899;DHT22;38763;53.096;6.062;2024-01-06T03:23:29;1.80;99.90
52899;DHT22;38763;53.096;6.062;2024-01-06T03:25:55;1.80;99.90
52899;DHT22;38763;53.096;6.062;2024-01-06T03:28:20;1.70;99.90
52899;DHT22;38763;53.096;6.062;2024-01-06T03:30:46;1.80;99.90
52899;DHT22;38763;53.096;6.062;2024-01-06T03:33:12;1.80;99.90
52899;DHT22;38763;53.096;6.062;2024-01-06T03:35:37;1.80;99.90
52899;DHT22;38763;53.096;6.062;2024-01-06T03:38:03;1.80;99.90
52899;DHT22;38763;53.096;6.062;2024-01-06T03:40:29;1.80;99.90
52899;DHT22;38763;53.096;6.062;2024-01-06T03:42:54;1.80;99.90
52899;DHT22;38763;53.096;6.062;2024-01-06T03:45:20;1.80;99.90
52899;DHT22;38763;53.096;6.062;2024-01-06T03:47:46;1.70;99.90
52899;DHT22;38763;53.096;6.062;2024-01-06T03:50:12;1.80;99.90
52899;DHT22;38763;53.096;6.062;2024-01-06T03:52:38;1.70;99.90
52899;DHT22;38763;53.096;6.062;2024-01-06T03:55:05;1.70;99.90
52899;DHT22;38763;53.096;6.062;2024-01-06T03:57:30;1.70;99.90
52899;DHT22;38763;53.096;6.062;2024-01-06T03:59:57;1.80;99.90
52899;DHT22;38763;53.096;6.062;2024-01-06T04:02:23;1.80;99.90
52899;DHT22;38763;53.096;6.062;2024-01-06T04:04:49;1.70;99.90
52899;DHT22;38763;53.096;6.062;2024-01-06T04:07:15;1.80;99.90
52899;DHT22;38763;53.096;6.062;2024-01-06T04:09:42;1.80;99.90
52899;DHT22;38763;53.096;6.062;2024-01-06T04:12:08;1.80;99.90
52899;DHT22;38763;53.096;6.062;2024-01-06T04:14:34;1.80;99.90
52899;DHT22;38763;53.096;6.062;2024-01-06T04:17:00;1.70;99.90
52899;DHT22;38763;53.096;6.062;2024-01-06T04:19:25;1.80;99.90
52899;DHT22;38763;53.096;6.062;2024-01-06T04:21:51;1.80;99.90
52899;DHT22;38763;53.096;6.062;2024-01-06T04:24:16;1.70;99.90
52899;DHT22;38763;53.096;6.062;2024-01-06T04:26:42;1.70;99.90
52899;DHT22;38763;53.096;6.062;2024-01-06T04:29:10;1.70;99.90
52899;DHT22;38763;53.096;6.062;2024-01-06T04:31:37;1.80;99.90
52899;DHT22;38763;53.096;6.062;2024-01-06T04:34:03;1.80;99.90
52899;DHT22;38763;53.096;6.062;2024-01-06T04:36:28;1.80;99.90
52899;DHT22;38763;53.096;6.062;2024-01-06T04:38:54;1.70;99.90
52899;DHT22;38763;53.096;6.062;2024-01-06T04:41:20;1.70;99.90
52899;DHT22;38763;53.096;6.062;2024-01-06T04:43:46;1.80;99.90
52899;DHT22;38763;53.096;6.062;2024-01-06T04:46:12;1.80;99.90
52899;DHT22;38763;53.096;6.062;2024-01-06T04:48:40;1.80;99.90
52899;DHT22;38763;53.096;6.062;2024-01-06T04:51:06;1.80;99.90
52899;DHT22;38763;53.096;6.062;2024-01-06T04:53:35;1.80;99.90
52899;DHT22;38763;53.096;6.062;2024-01-06T04:56:01;1.80;99.90
52899;DHT22;38763;53.096;6.062;2024-01-06T04:58:27;1.80;99.90
52899;DHT22;38763;53.096;6.062;2024-01-06T05:00:52;1.80;99.90
52899;DHT22;38763;53.096;6.062;2024-01-06T05:03:18;1.80;99.90
52899;DHT22;38763;53.096;6.062;2024-01-06T05:05:44;1.80;99.90
52899;DHT22;38763;53.096;6.062;2024-01-06T05:08:09;1.80;99.90
52899;DHT22;38763;53.096;6.062;2024-01-06T05:10:35;1.80;99.90
52899;DHT22;38763;53.096;6.062;2024-01-06T05:13:00;1.90;99.90
52899;DHT22;38763;53.096;6.062;2024-01-06T05:15:26;1.80;99.90
52899;DHT22;38763;53.096;6.062;2024-01-06T05:17:52;1.80;99.90
52899;DHT22;38763;53.096;6.062;2024-01-06T05:20:18;1.80;99.90
52899;DHT22;38763;53.096;6.062;2024-01-06T05:22:43;1.90;99.90
52899;DHT22;38763;53.096;6.062;2024-01-06T05:25:09;1.80;99.90
52899;DHT22;38763;53.096;6.062;2024-01-06T05:27:35;1.90;99.90
52899;DHT22;38763;53.096;6.062;2024-01-06T05:30:01;1.80;99.90
52899;DHT22;38763;53.096;6.062;2024-01-06T05:32:26;1.80;99.90
52899;DHT22;38763;53.096;6.062;2024-01-06T05:34:52;1.80;99.90
52899;DHT22;38763;53.096;6.062;2024-01-06T05:37:18;1.80;99.90
52899;DHT22;38763;53.096;6.062;2024-01-06T05:39:43;1.90;99.90
52899;DHT22;38763;53.096;6.062;2024-01-06T05:42:10;1.80;99.90
52899;DHT22;38763;53.096;6.062;2024-01-06T05:44:41;1.80;99.90
52899;DHT22;38763;53.096;6.062;2024-01-06T05:47:06;1.80;99.90
52899;DHT22;38763;53.096;6.062;2024-01-06T05:49:33;1.80;99.90
52899;DHT22;38763;53.096;6.062;2024-01-06T05:51:59;1.80;99.90
52899;DHT22;38763;53.096;6.062;2024-01-06T05:54:28;1.90;99.90
52899;DHT22;38763;53.096;6.062;2024-01-06T05:56:55;1.80;99.90
52899;DHT22;38763;53.096;6.062;2024-01-06T05:59:20;1.80;99.90
52899;DHT22;38763;53.096;6.062;2024-01-06T06:01:46;1.80;99.90
52899;DHT22;38763;53.096;6.062;2024-01-06T06:04:11;1.90;99.90
52899;DHT22;38763;53.096;6.062;2024-01-06T06:06:37;1.90;99.90
52899;DHT22;38763;53.096;6.062;2024-01-06T06:09:03;1.80;99.90
52899;DHT22;38763;53.096;6.062;2024-01-06T06:11:35;1.90;99.90
52899;DHT22;38763;53.096;6.062;2024-01-06T06:14:01;1.90;99.90
52899;DHT22;38763;53.096;6.062;2024-01-06T06:16:28;2.00;99.90
52899;DHT22;38763;53.096;6.062;2024-01-06T06:18:55;1.90;99.90
52899;DHT22;38763;53.096;6.062;2024-01-06T06:21:20;1.90;99.90
52899;DHT22;38763;53.096;6.062;2024-01-06T06:23:46;1.90;99.90
52899;DHT22;38763;53.096;6.062;2024-01-06T06:26:13;1.90;99.90
52899;DHT22;38763;53.096;6.062;2024-01-06T06:28:38;1.80;99.90
52899;DHT22;38763;53.096;6.062;2024-01-06T06:31:04;1.90;99.90
52899;DHT22;38763;53.096;6.062;2024-01-06T06:33:30;1.90;99.90
52899;DHT22;38763;53.096;6.062;2024-01-06T06:35:55;1.90;99.90
52899;DHT22;38763;53.096;6.062;2024-01-06T06:38:21;1.90;99.90
52899;DHT22;38763;53.096;6.062;2024-01-06T06:40:47;1.90;99.90
52899;DHT22;38763;53.096;6.062;2024-01-06T06:43:13;1.90;99.90
52899;DHT22;38763;53.096;6.062;2024-01-06T06:45:39;2.00;99.90
52899;DHT22;38763;53.096;6.062;2024-01-06T06:48:05;1.90;99.90
52899;DHT22;38763;53.096;6.062;2024-01-06T06:50:32;1.80;99.90
52899;DHT22;38763;53.096;6.062;2024-01-06T06:52:58;1.90;99.90
52899;DHT22;38763;53.096;6.062;2024-01-06T06:55:24;1.80;99.90
52899;DHT22;38763;53.096;6.062;2024-01-06T06:57:49;2.00;99.90
52899;DHT22;38763;53.096;6.062;2024-01-06T07:00:15;1.90;99.90
52899;DHT22;38763;53.096;6.062;2024-01-06T07:02:42;1.90;99.90
52899;DHT22;38763;53.096;6.062;2024-01-06T07:05:08;1.90;99.90
52899;DHT22;38763;53.096;6.062;2024-01-06T07:07:34;1.90;99.90
52899;DHT22;38763;53.096;6.062;2024-01-06T07:10:03;1.80;99.90
52899;DHT22;38763;53.096;6.062;2024-01-06T07:12:33;1.90;99.90
52899;DHT22;38763;53.096;6.062;2024-01-06T07:14:59;2.00;99.90
52899;DHT22;38763;53.096;6.062;2024-01-06T07:17:25;1.90;99.90
52899;DHT22;38763;53.096;6.062;2024-01-06T07:19:51;1.90;99.90
52899;DHT22;38763;53.096;6.062;2024-01-06T07:22:16;1.90;99.90
52899;DHT22;38763;53.096;6.062;2024-01-06T07:24:43;2.00;99.90
52899;DHT22;38763;53.096;6.062;2024-01-06T07:27:09;2.00;99.90
52899;DHT22;38763;53.096;6.062;2024-01-06T07:29:35;1.90;99.90
52899;DHT22;38763;53.096;6.062;2024-01-06T07:32:01;1.90;99.90
52899;DHT22;38763;53.096;6.062;2024-01-06T07:34:27;2.00;99.90
52899;DHT22;38763;53.096;6.062;2024-01-06T07:36:52;1.90;99.90
52899;DHT22;38763;53.096;6.062;2024-01-06T07:39:18;1.90;99.90
52899;DHT22;38763;53.096;6.062;2024-01-06T07:41:44;2.00;99.90
52899;DHT22;38763;53.096;6.062;2024-01-06T07:44:12;2.00;99.90
52899;DHT22;38763;53.096;6.062;2024-01-06T07:46:39;2.00;99.90
52899;DHT22;38763;53.096;6.062;2024-01-06T07:49:06;2.00;99.90
52899;DHT22;38763;53.096;6.062;2024-01-06T07:51:31;1.90;99.90
52899;DHT22;38763;53.096;6.062;2024-01-06T07:53:57;1.90;99.90
52899;DHT22;38763;53.096;6.062;2024-01-06T07:56:23;2.00;99.90
52899;DHT22;38763;53.096;6.062;2024-01-06T07:58:49;2.00;99.90
52899;DHT22;38763;53.096;6.062;2024-01-06T08:01:15;2.00;99.90
52899;DHT22;38763;53.096;6.062;2024-01-06T08:03:40;2.00;99.90
52899;DHT22;38763;53.096;6.062;2024-01-06T08:06:06;2.00;99.90
52899;DHT22;38763;53.096;6.062;2024-01-06T08:08:32;2.00;99.90
52899;DHT22;38763;53.096;6.062;2024-01-06T08:10:57;2.10;99.90
52899;DHT22;38763;53.096;6.062;2024-01-06T08:13:23;2.10;99.90
52899;DHT22;38763;53.096;6.062;2024-01-06T08:15:49;2.10;99.90
52899;DHT22;38763;53.096;6.062;2024-01-06T08:18:14;2.00;99.90
52899;DHT22;38763;53.096;6.062;2024-01-06T08:20:40;2.10;99.90
52899;DHT22;38763;53.096;6.062;2024-01-06T08:23:05;2.10;99.90
52899;DHT22;38763;53.096;6.062;2024-01-06T08:25:31;2.10;99.90
52899;DHT22;38763;53.096;6.062;2024-01-06T08:27:57;2.10;99.90
52899;DHT22;38763;53.096;6.062;2024-01-06T08:30:22;2.10;99.90
52899;DHT22;38763;53.096;6.062;2024-01-06T08:32:49;2.00;99.90
52899;DHT22;38763;53.096;6.062;2024-01-06T08:35:14;2.10;99.90
52899;DHT22;38763;53.096;6.062;2024-01-06T08:37:42;2.10;99.90
52899;DHT22;38763;53.096;6.062;2024-01-06T08:40:09;2.10;99.90
52899;DHT22;38763;53.096;6.062;2024-01-06T08:42:34;2.10;99.90
52899;DHT22;38763;53.096;6.062;2024-01-06T08:45:00;2.10;99.90
52899;DHT22;38763;53.096;6.062;2024-01-06T08:47:26;2.10;99.90
52899;DHT22;38763;53.096;6.062;2024-01-06T08:49:51;2.10;99.90
52899;DHT22;38763;53.096;6.062;2024-01-06T08:52:17;2.10;99.90
52899;DHT22;38763;53.096;6.062;2024-01-06T08:54:42;2.10;99.90
52899;DHT22;38763;53.096;6.062;2024-01-06T08:57:08;2.10;99.90
52899;DHT22;38763;53.096;6.062;2024-01-06T08:59:34;2.10;99.90
52899;DHT22;38763;53.096;6.062;2024-01-06T09:01:59;2.20;99.90
52899;DHT22;38763;53.096;6.062;2024-01-06T09:04:26;2.20;99.90
52899;DHT22;38763;53.096;6.062;2024-01-06T09:06:52;2.10;99.90
52899;DHT22;38763;53.096;6.062;2024-01-06T09:09:17;2.20;99.90
52899;DHT22;38763;53.096;6.062;2024-01-06T09:11:43;2.20;99.90
52899;DHT22;38763;53.096;6.062;2024-01-06T09:14:10;2.20;99.90
52899;DHT22;38763;53.096;6.062;2024-01-06T09:16:38;2.20;99.90
52899;DHT22;38763;53.096;6.062;2024-01-06T09:19:04;2.20;99.90
52899;DHT22;38763;53.096;6.062;2024-01-06T09:21:30;2.10;99.90
52899;DHT22;38763;53.096;6.062;2024-01-06T09:23:55;2.10;99.90
52899;DHT22;38763;53.096;6.062;2024-01-06T09:26:21;2.20;99.90
52899;DHT22;38763;53.096;6.062;2024-01-06T09:28:47;2.10;99.90
52899;DHT22;38763;53.096;6.062;2024-01-06T09:31:13;2.20;99.90
52899;DHT22;38763;53.096;6.062;2024-01-06T09:33:39;2.10;99.90
52899;DHT22;38763;53.096;6.062;2024-01-06T09:36:05;2.20;99.90
52899;DHT22;38763;53.096;6.062;2024-01-06T09:38:30;2.20;99.90
52899;DHT22;38763;53.096;6.062;2024-01-06T09:40:56;2.20;99.90
52899;DHT22;38763;53.096;6.062;2024-01-06T09:43:23;2.20;99.90
52899;DHT22;38763;53.096;6.062;2024-01-06T09:46:06;2.10;99.90
52899;DHT22;38763;53.096;6.062;2024-01-06T09:48:37;2.20;99.90
52899;DHT22;38763;53.096;6.062;2024-01-06T09:51:04;2.10;99.90
52899;DHT22;38763;53.096;6.062;2024-01-06T09:53:34;2.20;99.90
52899;DHT22;38763;53.096;6.062;2024-01-06T09:56:02;2.20;99.90
52899;DHT22;38763;53.096;6.062;2024-01-06T09:58:28;2.20;99.90
52899;DHT22;38763;53.096;6.062;2024-01-06T10:00:59;2.20;99.90
52899;DHT22;38763;53.096;6.062;2024-01-06T10:03:25;2.20;99.90
52899;DHT22;38763;53.096;6.062;2024-01-06T10:05:52;2.20;99.90
52899;DHT22;38763;53.096;6.062;2024-01-06T10:08:18;2.30;99.90
52899;DHT22;38763;53.096;6.062;2024-01-06T10:10:46;2.30;99.90
52899;DHT22;38763;53.096;6.062;2024-01-06T10:13:17;2.30;99.90
52899;DHT22;38763;53.096;6.062;2024-01-06T10:15:42;2.30;99.90
52899;DHT22;38763;53.096;6.062;2024-01-06T10:18:08;2.30;99.90
52899;DHT22;38763;53.096;6.062;2024-01-06T10:20:34;2.30;99.90
52899;DHT22;38763;53.096;6.062;2024-01-06T10:23:05;2.30;99.90
52899;DHT22;38763;53.096;6.062;2024-01-06T10:25:31;2.30;99.90
52899;DHT22;38763;53.096;6.062;2024-01-06T10:27:57;2.40;99.90
52899;DHT22;38763;53.096;6.062;2024-01-06T10:30:25;2.30;99.90
52899;DHT22;38763;53.096;6.062;2024-01-06T10:32:51;2.30;99.90
52899;DHT22;38763;53.096;6.062;2024-01-06T10:35:18;2.30;99.90
52899;DHT22;38763;53.096;6.062;2024-01-06T10:37:45;2.30;99.90
52899;DHT22;38763;53.096;6.062;2024-01-06T10:40:15;2.30;99.90
52899;DHT22;38763;53.096;6.062;2024-01-06T10:42:45;2.30;99.90
52899;DHT22;38763;53.096;6.062;2024-01-06T10:45:12;2.20;99.90
52899;DHT22;38763;53.096;6.062;2024-01-06T10:47:39;2.20;99.90
52899;DHT22;38763;53.096;6.062;2024-01-06T10:50:06;2.20;99.90
52899;DHT22;38763;53.096;6.062;2024-01-06T10:52:33;2.30;99.90
52899;DHT22;38763;53.096;6.062;2024-01-06T10:55:01;2.20;99.90
52899;DHT22;38763;53.096;6.062;2024-01-06T10:57:29;2.30;99.90
52899;DHT22;38763;53.096;6.062;2024-01-06T10:59:58;2.30;99.90
52899;DHT22;38763;53.096;6.062;2024-01-06T11:02:25;2.30;99.90
52899;DHT22;38763;53.096;6.062;2024-01-06T11:04:50;2.30;99.90
52899;DHT22;38763;53.096;6.062;2024-01-06T11:07:18;2.30;99.90
52899;DHT22;38763;53.096;6.062;2024-01-06T11:09:57;2.30;99.90
52899;DHT22;38763;53.096;6.062;2024-01-06T11:12:28;2.30;99.90
52899;DHT22;38763;53.096;6.062;2024-01-06T11:14:54;2.30;99.90
52899;DHT22;38763;53.096;6.062;2024-01-06T11:17:54;2.20;99.90
52899;DHT22;38763;53.096;6.062;2024-01-06T11:20:24;2.30;99.90
52899;DHT22;38763;53.096;6.062;2024-01-06T11:22:52;2.30;99.90
52899;DHT22;38763;53.096;6.062;2024-01-06T11:25:19;2.20;99.90
52899;DHT22;38763;53.096;6.062;2024-01-06T11:27:49;2.30;99.90
52899;DHT22;38763;53.096;6.062;2024-01-06T11:30:22;2.30;99.90
52899;DHT22;38763;53.096;6.062;2024-01-06T11:32:53;2.30;99.90
52899;DHT22;38763;53.096;6.062;2024-01-06T11:35:21;2.30;99.90
52899;DHT22;38763;53.096;6.062;2024-01-06T11:43:04;2.30;99.90
52899;DHT22;38763;53.096;6.062;2024-01-06T11:45:34;2.30;99.90
52899;DHT22;38763;53.096;6.062;2024-01-06T11:48:02;2.30;99.90
52899;DHT22;38763;53.096;6.062;2024-01-06T11:50:36;2.40;99.90
52899;DHT22;38763;53.096;6.062;2024-01-06T11:53:03;2.40;99.90
52899;DHT22;38763;53.096;6.062;2024-01-06T11:55:29;2.40;99.90
52899;DHT22;38763;53.096;6.062;2024-01-06T11:58:00;2.50;99.90
52899;DHT22;38763;53.096;6.062;2024-01-06T12:00:29;2.50;99.90
52899;DHT22;38763;53.096;6.062;2024-01-06T12:02:59;2.50;99.90
52899;DHT22;38763;53.096;6.062;2024-01-06T12:05:26;2.50;99.90
52899;DHT22;38763;53.096;6.062;2024-01-06T12:07:59;2.60;99.90
52899;DHT22;38763;53.096;6.062;2024-01-06T12:10:26;2.50;99.90
52899;DHT22;38763;53.096;6.062;2024-01-06T12:13:02;2.50;99.90
52899;DHT22;38763;53.096;6.062;2024-01-06T12:15:29;2.50;99.90
52899;DHT22;38763;53.096;6.062;2024-01-06T12:17:56;2.50;99.90
52899;DHT22;38763;53.096;6.062;2024-01-06T12:20:22;2.50;99.90
52899;DHT22;38763;53.096;6.062;2024-01-06T12:22:50;2.50;99.90
52899;DHT22;38763;53.096;6.062;2024-01-06T12:25:16;2.50;99.90
52899;DHT22;38763;53.096;6.062;2024-01-06T12:27:48;2.50;99.90
52899;DHT22;38763;53.096;6.062;2024-01-06T12:30:19;2.50;99.90
52899;DHT22;38763;53.096;6.062;2024-01-06T12:32:49;2.60;99.90
52899;DHT22;38763;53.096;6.062;2024-01-06T12:35:15;2.60;99.90
52899;DHT22;38763;53.096;6.062;2024-01-06T12:37:42;2.50;99.90
52899;DHT22;38763;53.096;6.062;2024-01-06T12:40:09;2.40;99.90
52899;DHT22;38763;53.096;6.062;2024-01-06T12:42:35;2.50;99.90
52899;DHT22;38763;53.096;6.062;2024-01-06T12:45:02;2.60;99.90
52899;DHT22;38763;53.096;6.062;2024-01-06T12:47:28;2.50;99.90
52899;DHT22;38763;53.096;6.062;2024-01-06T12:49:53;2.50;99.90
52899;DHT22;38763;53.096;6.062;2024-01-06T12:52:19;2.40;99.90
52899;DHT22;38763;53.096;6.062;2024-01-06T12:54:45;2.50;99.90
52899;DHT22;38763;53.096;6.062;2024-01-06T12:57:11;2.50;99.90
52899;DHT22;38763;53.096;6.062;2024-01-06T12:59:37;2.50;99.90
52899;DHT22;38763;53.096;6.062;2024-01-06T13:02:03;2.40;99.90
52899;DHT22;38763;53.096;6.062;2024-01-06T13:04:28;2.40;99.90
52899;DHT22;38763;53.096;6.062;2024-01-06T13:06:54;2.30;99.90
52899;DHT22;38763;53.096;6.062;2024-01-06T13:09:20;2.40;99.90
52899;DHT22;38763;53.096;6.062;2024-01-06T13:11:48;2.40;99.90
52899;DHT22;38763;53.096;6.062;2024-01-06T13:14:16;2.30;99.90
52899;DHT22;38763;53.096;6.062;2024-01-06T13:16:41;2.40;99.90
52899;DHT22;38763;53.096;6.062;2024-01-06T13:19:07;2.40;99.90
52899;DHT22;38763;53.096;6.062;2024-01-06T13:21:33;2.30;99.90
52899;DHT22;38763;53.096;6.062;2024-01-06T13:23:59;2.30;99.90
52899;DHT22;38763;53.096;6.062;2024-01-06T13:26:27;2.30;99.90
52899;DHT22;38763;53.096;6.062;2024-01-06T13:28:54;2.30;99.90
52899;DHT22;38763;53.096;6.062;2024-01-06T13:31:19;2.30;99.90
52899;DHT22;38763;53.096;6.062;2024-01-06T13:33:46;2.30;99.90
52899;DHT22;38763;53.096;6.062;2024-01-06T13:36:11;2.30;99.90
52899;DHT22;38763;53.096;6.062;2024-01-06T13:38:38;2.30;99.90
52899;DHT22;38763;53.096;6.062;2024-01-06T13:41:04;2.20;99.90
52899;DHT22;38763;53.096;6.062;2024-01-06T13:43:29;2.30;99.90
52899;DHT22;38763;53.096;6.062;2024-01-06T13:45:57;2.30;99.90
52899;DHT22;38763;53.096;6.062;2024-01-06T13:48:23;2.30;99.90
52899;DHT22;38763;53.096;6.062;2024-01-06T13:50:48;2.30;99.90
52899;DHT22;38763;53.096;6.062;2024-01-06T13:53:14;2.30;99.90
52899;DHT22;38763;53.096;6.062;2024-01-06T13:55:40;2.30;99.90
52899;DHT22;38763;53.096;6.062;2024-01-06T13:58:06;2.20;99.90
52899;DHT22;38763;53.096;6.062;2024-01-06T14:00:35;2.30;99.90
52899;DHT22;38763;53.096;6.062;2024-01-06T14:03:00;2.30;99.90
52899;DHT22;38763;53.096;6.062;2024-01-06T14:05:26;2.20;99.90
52899;DHT22;38763;53.096;6.062;2024-01-06T14:07:52;2.20;99.90
52899;DHT22;38763;53.096;6.062;2024-01-06T14:10:18;2.20;99.90
52899;DHT22;38763;53.096;6.062;2024-01-06T14:12:44;2.20;99.90
52899;DHT22;38763;53.096;6.062;2024-01-06T14:15:09;2.20;99.90
52899;DHT22;38763;53.096;6.062;2024-01-06T14:17:35;2.10;99.90
52899;DHT22;38763;53.096;6.062;2024-01-06T14:20:01;2.10;99.90
52899;DHT22;38763;53.096;6.062;2024-01-06T14:22:29;2.10;99.90
52899;DHT22;38763;53.096;6.062;2024-01-06T14:24:55;2.10;99.90
52899;DHT22;38763;53.096;6.062;2024-01-06T14:27:21;2.10;99.90
52899;DHT22;38763;53.096;6.062;2024-01-06T14:29:48;2.10;99.90
52899;DHT22;38763;53.096;6.062;2024-01-06T14:32:14;2.10;99.90
52899;DHT22;38763;53.096;6.062;2024-01-06T14:34:39;2.00;99.90
52899;DHT22;38763;53.096;6.062;2024-01-06T14:37:05;2.00;99.90
52899;DHT22;38763;53.096;6.062;2024-01-06T14:39:31;2.00;99.90
52899;DHT22;38763;53.096;6.062;2024-01-06T14:41:56;2.00;99.90
52899;DHT22;38763;53.096;6.062;2024-01-06T14:44:22;2.00;99.90
52899;DHT22;38763;53.096;6.062;2024-01-06T14:46:49;1.90;99.90
52899;DHT22;38763;53.096;6.062;2024-01-06T14:49:16;1.80;99.90
52899;DHT22;38763;53.096;6.062;2024-01-06T14:51:42;1.80;99.90
52899;DHT22;38763;53.096;6.062;2024-01-06T14:54:08;1.80;99.90
52899;DHT22;38763;53.096;6.062;2024-01-06T14:56:38;1.80;99.90
52899;DHT22;38763;53.096;6.062;2024-01-06T14:59:04;1.70;99.90
52899;DHT22;38763;53.096;6.062;2024-01-06T15:01:31;1.70;99.90
52899;DHT22;38763;53.096;6.062;2024-01-06T15:03:57;1.70;99.90
52899;DHT22;38763;53.096;6.062;2024-01-06T15:06:23;1.70;99.90
52899;DHT22;38763;53.096;6.062;2024-01-06T15:08:48;1.70;99.90
52899;DHT22;38763;53.096;6.062;2024-01-06T15:11:14;1.70;99.90
52899;DHT22;38763;53.096;6.062;2024-01-06T15:13:40;1.70;99.90
52899;DHT22;38763;53.096;6.062;2024-01-06T15:16:06;1.70;99.90
52899;DHT22;38763;53.096;6.062;2024-01-06T15:18:32;1.70;99.90
52899;DHT22;38763;53.096;6.062;2024-01-06T15:20:58;1.60;99.90
52899;DHT22;38763;53.096;6.062;2024-01-06T15:23:24;1.60;99.90
52899;DHT22;38763;53.096;6.062;2024-01-06T15:25:50;1.50;99.90
52899;DHT22;38763;53.096;6.062;2024-01-06T15:28:15;1.60;99.90
52899;DHT22;38763;53.096;6.062;2024-01-06T15:30:41;1.50;99.90
52899;DHT22;38763;53.096;6.062;2024-01-06T15:33:07;1.50;99.90
52899;DHT22;38763;53.096;6.062;2024-01-06T15:35:33;1.50;99.90
52899;DHT22;38763;53.096;6.062;2024-01-06T15:37:58;1.50;99.90
52899;DHT22;38763;53.096;6.062;2024-01-06T15:40:24;1.60;99.90
52899;DHT22;38763;53.096;6.062;2024-01-06T15:42:50;1.50;99.90
52899;DHT22;38763;53.096;6.062;2024-01-06T15:45:16;1.40;99.90